KSMF/SMF METAR and TAF weather

Enter ICAO airport designator
Station Type Date Time Source
KSMF METAR 2022/01/23 10:53 UTC NOAA

KSMF 231053Z 00000KT 1SM R17R/1400FT BR BCFG CLR 02/01 A3023 RMK AO2 SLP236 T00220011


Station Type Date Time Source
KSMF Decoded METAR 2022/01/23 10:53 UTC NOAA

SACRAMENTO INTERNATIONAL AIRPORT, CA, United States (KSMF) 38-42N 121-36W 6M
Jan 23, 2022 - 05:53 AM EST / 2022.01.23 1053 UTC
Wind: Calm:0
Visibility: 1 mile(s):0
Sky conditions: clear
Weather: mist; patches of fog
Temperature: 36.0 F (2.2 C)
Dew Point: 34.0 F (1.1 C)
Relative Humidity: 92%
Pressure (altimeter): 30.23 in. Hg (1023 hPa)
ob: KSMF 231053Z 00000KT 1SM R17R/1400FT BR BCFG CLR 02/01 A3023 RMK AO2 SLP236 T00220011
cycle: 11

Station Type Date Time Source
KSMF TAF 2022/01/23 12:33 UTC NOAA

TAF KSMF 231130Z 2312/2412 00000KT 1 1/2SM BR FEW005
TEMPO 2312/2316 1/4SM FG VV001
FM231700 34006KT P6SM SKC
FM240400 VRB03KT 4SM BR SKC

Example: see airport list